Hordern Vale, Australia
Current Conditions -  °F | °C
As of 3:00 AM on Saturday 25 Oct 2014 (Local Time) from YMAV Reporting Station
Overcast Overcast  
Wind Chill: 59°   Ceiling: 2200
Heat Index: 59°   Visibility: 6mi
Dew Point: 50°   Wind: 9mph
Humidity: 72%   Direction: 280°W
Pressure: 30"   Gusts: NA
Location:  38.77°S, 143.51°E
Report Text: YMAV 241600Z AUTO 28008KT 9999 // OVC022 15/10 Q1016
Loading
Personal Weather Stations






























Interactive Weather Map
Tropical Storm Tracking
New forecast layout! Learn more

10-Day Weather Forecast

Advertisements
Track Severe Weather on mobile